EW2753 Weather Reports


Display with metric or nautical units.
time (UTC)temp
F
wind
direction
speed
MPH
gust
MPH
rain 1hr
in
rain 24hr
in
rain mn
in
humidity
%
barometer
mb
20190215194553 29 161 0.0 0.0 0.01 0.01 0.01 99 970.7
20190215193055 28 190 0.0 0.0 0.01 0.01 0.01 99 970.6
20190215191549 29 195 0.0 0.0 0.00 0.00 0.00 99 970.4
20190215190042 29 212 0.0 0.0 0.00 0.00 0.00 99 970.2
20190215184539 28 211 0.0 0.0 0.00 0.00 0.00 99 970.2
20190215183044 27 190 0.0 0.0 0.00 0.00 0.00 99 970.0
20190215181541 27 192 0.0 0.0 0.00 0.00 0.00 98 969.9
20190215180020 29 232 0.0 0.0 0.00 0.00 0.00 99 969.6
20190215174519 30 242 0.0 0.0 0.00 0.00 0.00 99 969.5
20190215173010 30 246 0.0 0.0 0.00 0.00 0.00 99 969.4
20190215171528 29 246 0.0 0.0 0.00 0.00 0.00 99 969.3
20190215170004 29 246 0.0 0.0 0.00 0.00 0.00 99 969.2
20190215164500 29 229 0.0 0.0 0.00 0.00 0.00 99 969.0
20190215163153 29 237 0.0 1.0 0.00 0.00 0.00 99 968.8
20190215161733 30 202 0.0 0.0 0.00 0.00 0.00 99 968.4
20190215160146 29 202 0.0 0.0 0.00 0.00 0.00 99 968.1
20190215154654 29 201 0.0 0.0 0.00 0.00 0.00 99 968.0
20190215153207 29 184 0.0 0.0 0.00 0.00 0.00 99 967.6
20190215151708 29 97 0.0 0.0 0.00 0.00 0.00 99 967.2
20190215150130 29 74 0.0 0.0 0.00 0.00 0.00 99 966.9
20190215144612 28 74 0.0 0.0 0.00 0.00 0.00 99 966.8
20190215143204 28 338 0.0 0.0 0.00 0.00 0.00 99 966.8
20190215141643 27 299 0.0 0.0 0.00 0.00 0.00 99 966.7
20190215140106 28 299 0.0 0.0 0.00 0.00 0.00 98 966.6
20190215134643 28 300 0.0 0.0 0.00 0.00 0.00 98 966.6
20190215133140 29 309 0.0 0.0 0.00 0.00 0.00 99 966.6
20190215131611 29 246 0.0 0.0 0.00 0.00 0.00 99 966.6
20190215130051 29 55 0.0 0.0 0.00 0.00 0.00 99 966.7
20190215124619 28 50 0.0 1.0 0.00 0.00 0.00 99 965.7
20190215123052 28 69 0.0 0.0 0.00 0.00 0.00 99 965.8
20190215121605 28 73 0.0 1.0 0.00 0.00 0.00 99 965.9
20190215120054 28 65 0.0 1.0 0.00 0.00 0.00 99 965.7
20190215114547 27 80 0.0 1.0 0.00 0.00 0.00 99 965.7
20190215113031 26 52 0.0 0.0 0.00 0.00 0.00 98 965.3
20190215111538 26 52 0.0 0.0 0.00 0.00 0.00 98 965.3
20190215110032 26 25 0.0 0.0 0.00 0.00 0.00 98 965.1
20190215104534 26 71 0.0 0.0 0.00 0.00 0.00 98 964.8
20190215103038 25 71 0.0 0.0 0.00 0.00 0.00 98 964.7
20190215101548 25 200 0.0 0.0 0.00 0.00 0.00 98 964.7
20190215100024 25 205 0.0 0.0 0.00 0.00 0.00 98 964.6
20190215094554 26 205 0.0 0.0 0.00 0.00 0.00 98 964.5
20190215093036 26 211 0.0 0.0 0.00 0.00 0.00 98 964.2
20190215091527 26 189 0.0 0.0 0.00 0.00 0.00 98 963.9
20190215090013 25 190 0.0 0.0 0.00 0.00 0.00 97 963.9
20190215084524 26 190 0.0 0.0 0.00 0.00 0.00 98 963.6
20190215083011 26 193 0.0 0.0 0.00 0.00 0.00 98 963.6
20190215081519 26 189 0.0 1.0 0.00 0.00 0.00 98 963.4
20190215080023 26 175 0.0 0.0 0.00 0.00 0.00 98 963.3
20190215074502 26 155 0.0 0.0 0.00 0.00 0.00 98 962.9
20190215073002 26 151 0.0 0.0 0.00 0.00 0.00 98 962.8
20190215071502 26 144 0.0 0.0 0.00 0.00 0.00 98 962.8
20190215070001 27 169 0.0 0.0 0.00 0.00 0.00 98 962.6
20190215064631 27 152 0.0 1.0 0.00 0.00 0.00 98 962.8
20190215063315 28 180 0.0 1.0 0.00 0.00 0.00 99 962.4
20190215061647 28 177 0.0 0.0 0.00 0.00 0.00 98 962.2
20190215060136 29 187 0.0 1.0 0.00 0.00 0.00 99 962.2
20190215054747 29 198 0.0 0.0 0.00 0.00 0.00 98 961.8
20190215053148 29 196 0.0 1.0 0.00 0.00 0.00 99 961.7
20190215051638 29 204 0.0 4.0 0.00 0.00 0.00 99 961.7
20190215050202 29 196 0.0 2.0 0.00 0.00 0.00 99 961.6
20190215044731 29 182 0.0 1.0 0.00 0.00 0.00 98 961.4
20190215043222 30 202 0.0 4.0 0.00 0.00 0.00 99 961.1
20190215041632 30 244 1.0 5.0 0.00 0.00 0.00 98 960.9
20190215040144 30 238 0.0 8.0 0.00 0.00 0.00 98 960.7
20190215034723 30 236 1.0 5.0 0.00 0.00 0.00 98 960.8
20190215033211 30 244 0.0 5.0 0.00 0.00 0.00 98 960.5
20190215031811 30 242 0.0 3.0 0.00 0.00 0.00 98 960.2
20190215030240 30 209 0.0 4.0 0.00 0.00 0.00 98 960.2
20190215023155 30 287 3.0 11.0 0.00 0.00 0.00 98 958.9
20190215021629 30 282 2.0 11.0 0.00 0.00 0.00 98 959.1
20190215020231 30 273 3.0 9.0 0.00 0.00 0.00 98 958.5
20190215014638 30 281 1.0 9.0 0.00 0.00 0.00 98 958.1
20190215013125 30 266 5.0 16.0 0.00 0.00 0.00 97 958.3
20190215011627 30 263 9.0 15.0 0.00 0.00 0.00 97 958.6
20190215010157 31 279 4.0 10.0 0.00 0.00 0.00 97 958.3
20190215004640 31 280 1.0 8.0 0.00 0.00 0.00 97 957.5
20190215003122 31 307 4.0 12.0 0.00 0.00 0.00 96 956.9
20190215001655 31 314 4.0 10.0 0.00 0.00 0.00 96 957.0
20190215000157 31 308 5.0 13.0 0.00 0.00 0.00 96 956.9
20190214234614 31 300 6.0 13.0 0.00 0.01 0.00 96 956.6
20190214233204 31 305 7.0 12.0 0.00 0.01 0.00 97 956.2
20190214231714 31 312 5.0 13.0 0.00 0.01 0.00 97 956.2
20190214230129 30 307 9.0 15.0 0.00 0.01 0.00 97 956.3
20190214224633 31 325 5.0 15.0 0.00 0.01 0.00 97 956.2
20190214223116 31 325 7.0 13.0 0.00 0.01 0.00 96 956.4
20190214221646 31 322 9.0 14.0 0.00 0.01 0.00 96 956.9
20190214220135 31 309 5.0 12.0 0.00 0.01 0.00 96 956.8
20190214214608 31 319 5.0 13.0 0.00 0.01 0.00 96 956.8
20190214213058 31 312 5.0 13.0 0.00 0.01 0.00 96 956.9
20190214211602 31 317 6.0 15.0 0.00 0.01 0.00 96 957.2
20190214210107 31 355 4.0 14.0 0.00 0.01 0.00 96 957.3
20190214204600 31 331 6.0 14.0 0.00 0.01 0.00 96 957.6
20190214203043 31 311 7.0 13.0 0.00 0.01 0.00 96 958.0
20190214201547 31 331 7.0 16.0 0.00 0.01 0.00 96 958.3
20190214200043 31 319 4.0 17.0 0.00 0.01 0.00 96 958.7